createdAt,value
2018-04-14T00:01:03.062Z,21.73
2018-04-14T00:03:29.649Z,21.05
2018-04-14T00:05:56.627Z,22.98
2018-04-14T00:08:23.172Z,25.75
2018-04-14T00:10:49.799Z,24.92
2018-04-14T00:13:16.731Z,26.35
2018-04-14T00:15:43.260Z,26.77
2018-04-14T00:18:09.827Z,24.20
2018-04-14T00:20:36.399Z,25.85
2018-04-14T00:23:03.307Z,25.37
2018-04-14T00:25:29.868Z,24.33
2018-04-14T00:27:56.432Z,24.95
2018-04-14T00:30:22.962Z,25.67
2018-04-14T00:32:49.536Z,24.83
2018-04-14T00:35:16.100Z,23.98
2018-04-14T00:37:43.001Z,26.20
2018-04-14T00:40:09.612Z,24.50
2018-04-14T00:42:36.177Z,24.67
2018-04-14T00:45:02.784Z,25.48
2018-04-14T00:47:29.342Z,27.48
2018-04-14T00:49:56.274Z,24.48
2018-04-14T00:52:22.806Z,25.42
2018-04-14T00:54:49.432Z,24.73
2018-04-14T00:57:16.045Z,23.67
2018-04-14T00:59:42.964Z,24.12
2018-04-14T01:02:09.572Z,24.37
2018-04-14T01:04:36.132Z,23.27
2018-04-14T01:07:02.668Z,24.05
2018-04-14T01:09:29.232Z,24.67
2018-04-14T01:11:55.867Z,27.00
2018-04-14T01:14:22.396Z,24.25
2018-04-14T01:16:48.964Z,23.05
2018-04-14T01:19:15.593Z,23.98
2018-04-14T01:21:42.153Z,25.08
2018-04-14T01:24:08.715Z,26.08
2018-04-14T01:26:35.276Z,25.52
2018-04-14T01:29:01.808Z,25.80
2018-04-14T01:31:28.374Z,26.45
2018-04-14T01:33:54.933Z,24.85
2018-04-14T01:36:21.469Z,27.27
2018-04-14T01:38:48.028Z,26.15
2018-04-14T01:41:14.640Z,26.23
2018-04-14T01:43:41.172Z,24.98
2018-04-14T01:46:07.739Z,28.08
2018-04-14T01:48:34.295Z,26.60
2018-04-14T01:51:00.825Z,26.23
2018-04-14T01:53:27.393Z,29.85
2018-04-14T01:55:53.968Z,29.33
2018-04-14T01:58:20.498Z,28.27
2018-04-14T02:00:47.070Z,26.67
2018-04-14T02:03:13.641Z,25.25
2018-04-14T02:05:40.541Z,28.45
2018-04-14T02:08:07.100Z,24.98
2018-04-14T02:10:33.676Z,25.42
2018-04-14T02:13:00.612Z,28.55
2018-04-14T02:15:27.180Z,26.92
2018-04-14T02:17:54.115Z,26.10
2018-04-14T02:20:20.659Z,28.17
2018-04-14T02:22:47.235Z,26.77
2018-04-14T02:25:14.171Z,25.02
2018-04-14T02:27:40.704Z,22.87
2018-04-14T02:30:07.268Z,23.38
2018-04-14T02:32:33.872Z,21.83
2018-04-14T02:35:00.407Z,22.95
2018-04-14T02:37:27.020Z,22.92
2018-04-14T02:39:53.593Z,22.77
2018-04-14T02:42:20.176Z,20.50
2018-04-14T02:44:46.751Z,22.42
2018-04-14T02:47:13.311Z,18.77
2018-04-14T02:49:39.840Z,20.92
2018-04-14T02:52:06.405Z,19.65
2018-04-14T02:54:33.356Z,20.42
2018-04-14T02:56:59.883Z,19.98
2018-04-14T02:59:26.440Z,18.05
2018-04-14T03:01:53.005Z,18.55
2018-04-14T03:04:19.532Z,20.55
2018-04-14T03:06:46.105Z,18.58
2018-04-14T03:09:13.044Z,18.73
2018-04-14T03:11:39.612Z,17.98
2018-04-14T03:14:06.547Z,16.00
2018-04-14T03:16:33.108Z,17.48
2018-04-14T03:19:00.029Z,17.48
2018-04-14T03:21:26.591Z,16.65
2018-04-14T03:23:53.159Z,15.55
2018-04-14T03:26:19.680Z,14.70
2018-04-14T03:28:46.244Z,13.60
2018-04-14T03:31:12.869Z,14.87
2018-04-14T03:33:39.367Z,14.15
2018-04-14T03:36:06.304Z,12.55
2018-04-14T03:38:33.232Z,13.50
2018-04-14T03:40:59.760Z,14.93
2018-04-14T03:43:26.324Z,15.05
2018-04-14T03:45:52.887Z,15.73
2018-04-14T03:48:19.426Z,15.90
2018-04-14T03:50:45.993Z,16.27
2018-04-14T03:53:12.553Z,15.90
2018-04-14T03:55:39.452Z,16.87
2018-04-14T03:58:06.008Z,18.55
2018-04-14T04:00:32.564Z,18.25
2018-04-14T04:02:59.092Z,19.58
2018-04-14T04:05:25.660Z,17.45
2018-04-14T04:07:59.273Z,17.05
2018-04-14T04:10:25.837Z,16.00
2018-04-14T04:12:52.436Z,15.48
2018-04-14T04:15:18.999Z,14.87
2018-04-14T04:17:45.555Z,17.35
2018-04-14T04:20:20.216Z,14.63
2018-04-14T04:22:59.008Z,14.20
2018-04-14T04:25:40.380Z,14.13
2018-04-14T04:28:07.315Z,13.20
2018-04-14T04:30:41.388Z,17.10
2018-04-14T04:33:08.013Z,11.52
2018-04-14T04:35:34.568Z,9.95
2018-04-14T04:38:01.093Z,10.18
2018-04-14T04:40:28.027Z,11.18
2018-04-14T04:42:54.588Z,8.43
2018-04-14T04:45:21.113Z,8.65
2018-04-14T04:47:47.673Z,9.73
2018-04-14T04:50:14.232Z,7.72
2018-04-14T04:52:48.028Z,8.63
2018-04-14T04:55:14.588Z,9.38
2018-04-14T04:57:41.113Z,7.50
2018-04-14T05:00:07.689Z,9.38
2018-04-14T05:02:34.302Z,8.40
2018-04-14T05:05:00.828Z,10.20
2018-04-14T05:07:27.393Z,8.15
2018-04-14T05:09:53.960Z,7.90
2018-04-14T05:12:20.500Z,7.43
2018-04-14T05:14:47.105Z,7.62
2018-04-14T05:17:13.667Z,8.27
2018-04-14T05:19:40.195Z,7.47
2018-04-14T05:22:06.752Z,11.98
2018-04-14T05:24:33.335Z,8.10
2018-04-14T05:26:59.865Z,8.25
2018-04-14T05:29:26.427Z,8.10
2018-04-14T05:31:52.984Z,7.45
2018-04-14T05:34:19.511Z,9.98
2018-04-14T05:36:46.080Z,7.72
2018-04-14T05:39:12.649Z,7.68
2018-04-14T05:41:39.574Z,6.97
2018-04-14T05:44:06.161Z,9.60
2018-04-14T05:46:33.111Z,7.55
2018-04-14T05:49:00.009Z,6.87
2018-04-14T05:51:26.628Z,7.95
2018-04-14T05:53:53.568Z,7.87
2018-04-14T05:56:20.469Z,8.25
2018-04-14T05:58:47.041Z,8.15
2018-04-14T06:01:13.619Z,9.55
2018-04-14T06:03:40.552Z,6.90
2018-04-14T06:06:07.120Z,7.28
2018-04-14T06:08:34.063Z,7.03
2018-04-14T06:11:00.628Z,6.82
2018-04-14T06:13:27.565Z,6.85
2018-04-14T06:15:54.172Z,6.60
2018-04-14T06:18:20.710Z,7.15
2018-04-14T06:20:47.283Z,6.30
2018-04-14T06:23:13.863Z,6.87
2018-04-14T06:25:40.428Z,5.87
2018-04-14T06:28:07.380Z,6.70
2018-04-14T06:30:34.317Z,6.50
2018-04-14T06:33:00.852Z,6.22
2018-04-14T06:35:27.429Z,6.43
2018-04-14T06:37:54.392Z,6.28
2018-04-14T06:40:21.308Z,7.15
2018-04-14T06:42:47.885Z,6.45
2018-04-14T06:45:14.828Z,6.72
2018-04-14T06:47:41.365Z,6.70
2018-04-14T06:50:07.947Z,7.40
2018-04-14T06:52:34.535Z,7.07
2018-04-14T06:55:01.071Z,6.50
2018-04-14T06:57:27.644Z,8.17
2018-04-14T06:59:54.217Z,6.37
2018-04-14T07:02:20.772Z,6.23
2018-04-14T07:04:47.356Z,5.90
2018-04-14T07:07:15.223Z,14.73
2018-04-14T07:09:41.767Z,6.53
2018-04-14T07:12:08.712Z,5.03
2018-04-14T07:14:35.653Z,5.97
2018-04-14T07:17:02.225Z,6.50
2018-04-14T07:19:28.804Z,13.37
2018-04-14T07:21:55.380Z,9.70
2018-04-14T07:24:21.925Z,5.90
2018-04-14T07:26:48.503Z,5.03
2018-04-14T07:29:15.104Z,4.17
2018-04-14T07:31:41.648Z,4.93
2018-04-14T07:34:08.221Z,5.40
2018-04-14T07:36:34.821Z,5.60
2018-04-14T07:39:01.363Z,5.73
2018-04-14T07:41:27.928Z,5.80
2018-04-14T07:43:54.500Z,5.40
2018-04-14T07:46:21.046Z,5.17
2018-04-14T07:48:47.611Z,5.00
2018-04-14T07:51:14.184Z,5.60
2018-04-14T07:53:41.084Z,5.80
2018-04-14T07:56:07.645Z,11.07
2018-04-14T07:58:34.208Z,5.67
2018-04-14T08:01:00.793Z,5.63
2018-04-14T08:03:27.412Z,4.83
2018-04-14T08:05:53.981Z,8.07
2018-04-14T08:08:20.549Z,5.10
2018-04-14T08:10:47.117Z,4.37
2018-04-14T08:13:13.692Z,4.53
2018-04-14T08:15:40.303Z,5.17
2018-04-14T08:18:06.875Z,5.10
2018-04-14T08:20:33.443Z,3.93
2018-04-14T08:22:59.980Z,4.10
2018-04-14T08:25:26.544Z,4.90
2018-04-14T08:27:53.108Z,3.87
2018-04-14T08:30:20.017Z,4.57
2018-04-14T08:32:46.594Z,3.53
2018-04-14T08:35:13.160Z,4.37
2018-04-14T08:37:40.121Z,51.70
2018-04-14T08:40:07.064Z,3.83
2018-04-14T08:42:34.039Z,6.00
2018-04-14T08:45:00.584Z,3.77
2018-04-14T08:47:27.148Z,4.43
2018-04-14T08:49:53.722Z,3.03
2018-04-14T08:52:20.256Z,2.27
2018-04-14T08:54:46.841Z,3.87
2018-04-14T08:57:13.417Z,5.40
2018-04-14T08:59:39.943Z,9.97
2018-04-14T09:02:06.888Z,12.13
2018-04-14T09:04:33.456Z,4.33
2018-04-14T09:07:00.361Z,4.03
2018-04-14T09:09:26.928Z,3.80
2018-04-14T09:11:53.508Z,3.73
2018-04-14T09:14:20.412Z,3.77
2018-04-14T09:16:47.009Z,3.73
2018-04-14T09:19:13.944Z,3.93
2018-04-14T09:21:40.478Z,2.97
2018-04-14T09:24:07.053Z,3.20
2018-04-14T09:26:34.008Z,4.63
2018-04-14T09:29:00.908Z,3.93
2018-04-14T09:31:27.472Z,2.50
2018-04-14T09:33:54.051Z,3.07
2018-04-14T09:36:20.596Z,3.83
2018-04-14T09:38:47.279Z,2.20
2018-04-14T09:41:14.226Z,2.77
2018-04-14T09:43:41.128Z,2.63
2018-04-14T09:46:07.696Z,2.23
2018-04-14T09:48:34.261Z,1.50
2018-04-14T09:51:00.789Z,2.60
2018-04-14T09:53:27.355Z,2.13
2018-04-14T09:55:54.295Z,2.10
2018-04-14T09:58:20.833Z,2.30
2018-04-14T10:00:53.531Z,1.70
2018-04-14T10:03:22.944Z,1.80
2018-04-14T10:05:49.577Z,1.93
2018-04-14T10:08:16.181Z,1.80
2018-04-14T10:10:42.756Z,3.33
2018-04-14T10:13:09.340Z,1.37
2018-04-14T10:15:35.915Z,1.37
2018-04-14T10:18:02.552Z,2.03
2018-04-14T10:20:29.090Z,2.07
2018-04-14T10:22:55.652Z,1.70
2018-04-14T10:25:22.217Z,1.67
2018-04-14T10:27:48.793Z,1.40
2018-04-14T10:30:15.408Z,1.73
2018-04-14T10:32:42.335Z,4.70
2018-04-14T10:35:08.869Z,1.30
2018-04-14T10:37:35.476Z,1.43
2018-04-14T10:40:02.043Z,2.17
2018-04-14T10:42:28.573Z,1.40
2018-04-14T10:44:55.132Z,1.63
2018-04-14T10:47:21.696Z,1.60
2018-04-14T10:49:48.232Z,2.40
2018-04-14T10:52:14.797Z,2.30
2018-04-14T10:54:41.359Z,1.37
2018-04-14T10:57:07.888Z,1.10
2018-04-14T10:59:34.475Z,1.10
2018-04-14T11:02:01.040Z,2.03
2018-04-14T11:04:27.939Z,2.20
2018-04-14T11:06:54.512Z,1.07
2018-04-14T11:09:21.075Z,1.03
2018-04-14T11:11:47.980Z,1.27
2018-04-14T11:14:14.548Z,0.97
2018-04-14T11:16:41.107Z,3.83
2018-04-14T11:19:07.677Z,0.87
2018-04-14T11:21:34.317Z,1.17
2018-04-14T11:24:01.260Z,1.87
2018-04-14T11:26:27.797Z,1.43
2018-04-14T11:28:54.376Z,2.67
2018-04-14T11:31:21.326Z,2.33
2018-04-14T11:33:48.228Z,1.43
2018-04-14T11:36:14.789Z,1.90
2018-04-14T11:38:41.360Z,1.80
2018-04-14T11:41:07.906Z,1.80
2018-04-14T11:43:34.476Z,2.43
2018-04-14T11:46:01.441Z,4.60
2018-04-14T11:48:28.356Z,2.03
2018-04-14T11:50:54.979Z,2.03
2018-04-14T11:53:21.516Z,5.13
2018-04-14T11:55:48.052Z,2.10
2018-04-14T11:58:14.617Z,1.77
2018-04-14T12:00:41.185Z,2.13
2018-04-14T12:03:07.716Z,1.57
2018-04-14T12:05:34.276Z,2.40
2018-04-14T12:08:00.841Z,1.70
2018-04-14T12:10:27.384Z,2.60
2018-04-14T12:12:53.952Z,1.47
2018-04-14T12:15:20.892Z,1.40
2018-04-14T12:17:47.459Z,1.10
2018-04-14T12:20:14.021Z,1.50
2018-04-14T12:22:40.990Z,2.00
2018-04-14T12:25:07.529Z,1.47
2018-04-14T12:27:34.460Z,1.47
2018-04-14T12:30:01.024Z,1.30
2018-04-14T12:32:27.932Z,3.57
2018-04-14T12:34:54.497Z,2.20
2018-04-14T12:37:21.076Z,1.57
2018-04-14T12:39:47.977Z,1.40
2018-04-14T12:42:14.540Z,1.43
2018-04-14T12:44:41.116Z,1.63
2018-04-14T12:47:07.647Z,2.57
2018-04-14T12:49:34.204Z,1.50
2018-04-14T12:52:00.768Z,1.43
2018-04-14T12:54:27.688Z,1.80
2018-04-14T12:56:54.260Z,1.40
2018-04-14T12:59:20.841Z,1.10
2018-04-14T13:01:47.384Z,1.27
2018-04-14T13:04:13.957Z,1.37
2018-04-14T13:06:40.532Z,2.87
2018-04-14T13:09:07.127Z,1.60
2018-04-14T13:11:33.752Z,1.63
2018-04-14T13:14:00.686Z,1.63
2018-04-14T13:16:27.216Z,1.33
2018-04-14T13:18:53.816Z,1.63
2018-04-14T13:21:20.796Z,1.23
2018-04-14T13:23:47.352Z,1.60
2018-04-14T13:26:13.932Z,1.37
2018-04-14T13:28:40.514Z,1.67
2018-04-14T13:31:07.424Z,1.40
2018-04-14T13:33:33.996Z,6.80
2018-04-14T13:36:00.565Z,1.53
2018-04-14T13:38:27.461Z,3.23
2018-04-14T13:40:54.044Z,1.40
2018-04-14T13:43:20.607Z,6.10
2018-04-14T13:45:47.504Z,2.43
2018-04-14T13:48:14.097Z,2.83
2018-04-14T13:50:40.628Z,1.40
2018-04-14T13:53:07.160Z,1.27
2018-04-14T13:55:34.685Z,2.03
2018-04-14T13:58:01.616Z,1.97
2018-04-14T14:00:28.156Z,1.63
2018-04-14T14:02:54.728Z,3.03
2018-04-14T14:05:21.668Z,1.60
2018-04-14T14:07:48.204Z,1.40
2018-04-14T14:10:14.768Z,3.20
2018-04-14T14:12:41.347Z,1.10
2018-04-14T14:15:07.884Z,1.43
2018-04-14T14:17:34.504Z,0.90
2018-04-14T14:20:01.143Z,1.63
2018-04-14T14:22:27.675Z,1.67
2018-04-14T14:24:54.262Z,2.50
2018-04-14T14:27:21.221Z,1.33
2018-04-14T14:29:48.124Z,1.43
2018-04-14T14:32:14.699Z,1.40
2018-04-14T14:34:41.267Z,1.50
2018-04-14T14:37:08.176Z,1.90
2018-04-14T14:39:34.740Z,1.27
2018-04-14T14:42:01.304Z,3.10
2018-04-14T14:44:27.844Z,1.23
2018-04-14T14:46:54.408Z,1.60
2018-04-14T14:49:20.975Z,1.80
2018-04-14T14:51:47.535Z,1.23
2018-04-14T14:54:14.100Z,1.80
2018-04-14T14:56:40.712Z,1.67
2018-04-14T14:59:07.612Z,3.57
2018-04-14T15:01:34.265Z,3.30
2018-04-14T15:04:00.824Z,2.17
2018-04-14T15:06:27.415Z,3.40
2018-04-14T15:08:54.348Z,3.10
2018-04-14T15:11:20.917Z,2.47
2018-04-14T15:13:47.816Z,2.33
2018-04-14T15:16:14.380Z,2.60
2018-04-14T15:18:41.033Z,8.70
2018-04-14T15:21:07.571Z,3.63
2018-04-14T15:23:34.124Z,2.67
2018-04-14T15:26:00.687Z,6.53
2018-04-14T15:28:27.224Z,3.23
2018-04-14T15:30:53.796Z,3.27
2018-04-14T15:33:20.368Z,2.90
2018-04-14T15:35:46.905Z,2.67
2018-04-14T15:38:13.875Z,2.90
2018-04-14T15:40:40.447Z,3.17
2018-04-14T15:43:06.972Z,4.10
2018-04-14T15:45:33.537Z,3.47
2018-04-14T15:48:00.105Z,127.57
2018-04-14T15:50:26.627Z,34.80
2018-04-14T15:52:53.191Z,5.47
2018-04-14T15:55:19.752Z,2.70
2018-04-14T15:57:46.284Z,9.70
2018-04-14T16:00:12.864Z,7.13
2018-04-14T16:02:39.813Z,3.50
2018-04-14T16:05:06.349Z,3.00
2018-04-14T16:07:32.957Z,2.63
2018-04-14T16:09:59.564Z,3.07
2018-04-14T16:12:26.466Z,2.73
2018-04-14T16:14:53.033Z,3.20
2018-04-14T16:17:19.598Z,4.03
2018-04-14T16:19:46.180Z,3.37
2018-04-14T16:22:13.140Z,3.10
2018-04-14T16:24:39.721Z,3.37
2018-04-14T16:27:06.248Z,2.90
2018-04-14T16:29:32.825Z,2.57
2018-04-14T16:31:59.396Z,2.40
2018-04-14T16:34:25.936Z,2.77
2018-04-14T16:36:52.511Z,4.00
2018-04-14T16:39:19.444Z,2.53
2018-04-14T16:41:45.973Z,2.57
2018-04-14T16:44:12.581Z,3.40
2018-04-14T16:46:39.148Z,5.40
2018-04-14T16:49:05.692Z,4.77
2018-04-14T16:51:32.252Z,4.83
2018-04-14T16:53:58.821Z,4.07
2018-04-14T16:56:25.356Z,7.63
2018-04-14T16:58:51.921Z,3.37
2018-04-14T17:01:18.499Z,4.73
2018-04-14T17:03:45.065Z,4.60
2018-04-14T17:06:11.692Z,3.60
2018-04-14T17:08:38.641Z,5.30
2018-04-14T17:11:05.536Z,3.50
2018-04-14T17:13:32.151Z,5.47
2018-04-14T17:15:59.080Z,4.20
2018-04-14T17:18:25.616Z,7.63
2018-04-14T17:20:52.233Z,3.07
2018-04-14T17:23:18.792Z,7.93
2018-04-14T17:25:45.320Z,4.97
2018-04-14T17:28:11.896Z,3.43
2018-04-14T17:30:38.464Z,4.00
2018-04-14T17:33:05.065Z,3.63
2018-04-14T17:35:31.646Z,4.30
2018-04-14T17:37:58.240Z,3.50
2018-04-14T17:40:25.143Z,11.03
2018-04-14T17:42:51.726Z,4.03
2018-04-14T17:45:18.540Z,4.03
2018-04-14T17:47:45.100Z,4.63
2018-04-14T17:50:11.677Z,5.57
2018-04-14T17:52:38.252Z,6.10
2018-04-14T17:55:04.905Z,7.03
2018-04-14T17:57:32.123Z,6.70
2018-04-14T17:59:59.092Z,5.77
2018-04-14T18:02:25.702Z,5.07
2018-04-14T18:04:52.269Z,3.50
2018-04-14T18:07:18.841Z,3.67
2018-04-14T18:09:45.409Z,5.10
2018-04-14T18:12:11.984Z,3.63
2018-04-14T18:14:38.548Z,5.33
2018-04-14T18:17:05.088Z,5.90
2018-04-14T18:19:31.661Z,4.10
2018-04-14T18:21:58.312Z,5.10
2018-04-14T18:24:24.848Z,4.50
2018-04-14T18:26:51.420Z,5.10
2018-04-14T18:29:17.985Z,4.47
2018-04-14T18:31:51.933Z,4.73
2018-04-14T18:34:18.495Z,4.77
2018-04-14T18:36:45.025Z,15.27
2018-04-14T18:39:11.644Z,5.63
2018-04-14T18:41:38.582Z,4.50
2018-04-14T18:44:05.120Z,3.70
2018-04-14T18:46:31.696Z,4.70
2018-04-14T18:48:58.635Z,12.00
2018-04-14T18:51:25.484Z,4.30
2018-04-14T18:53:52.480Z,4.03
2018-04-14T18:56:19.180Z,5.33
2018-04-14T18:58:45.724Z,4.50
2018-04-14T19:01:12.287Z,5.63
2018-04-14T19:03:39.267Z,4.70
2018-04-14T19:06:06.861Z,6.53
2018-04-14T19:08:33.477Z,5.00
2018-04-14T19:11:00.415Z,5.33
2018-04-14T19:13:26.956Z,4.90
2018-04-14T19:15:53.564Z,5.40
2018-04-14T19:18:20.445Z,6.07
2018-04-14T19:20:47.048Z,7.37
2018-04-14T19:23:13.612Z,5.73
2018-04-14T19:25:40.179Z,5.40
2018-04-14T19:28:06.712Z,6.23
2018-04-14T19:30:33.286Z,5.50
2018-04-14T19:32:59.896Z,9.23
2018-04-14T19:35:27.538Z,6.70
2018-04-14T19:37:54.164Z,5.00
2018-04-14T19:40:20.729Z,4.40
2018-04-14T19:45:27.444Z,5.50
2018-04-14T19:47:54.032Z,5.33
2018-04-14T19:50:20.588Z,6.57
2018-04-14T19:52:47.153Z,4.93
2018-04-14T19:55:13.717Z,4.67
2018-04-14T19:57:40.249Z,4.03
2018-04-14T20:00:06.822Z,5.90
2018-04-14T20:02:33.396Z,6.03
2018-04-14T20:05:00.316Z,4.90
2018-04-14T20:07:26.883Z,27.23
2018-04-14T20:09:53.452Z,5.37
2018-04-14T20:12:20.464Z,5.37
2018-04-14T20:14:47.052Z,5.27
2018-04-14T20:17:13.624Z,7.73
2018-04-14T20:19:40.180Z,4.60
2018-04-14T20:22:06.800Z,4.90
2018-04-14T20:24:33.735Z,4.07
2018-04-14T20:27:00.279Z,4.27
2018-04-14T20:29:26.856Z,3.40
2018-04-14T20:31:53.428Z,3.60
2018-04-14T20:34:19.959Z,4.13
2018-04-14T20:36:46.528Z,4.60
2018-04-14T20:39:13.098Z,4.40
2018-04-14T20:41:46.708Z,4.90
2018-04-14T20:44:13.285Z,4.80
2018-04-14T20:46:40.225Z,5.20
2018-04-14T20:49:06.851Z,4.63
2018-04-14T20:51:33.424Z,4.27
2018-04-14T20:53:59.961Z,5.30
2018-04-14T20:56:26.527Z,10.20
2018-04-14T20:58:53.149Z,4.47
2018-04-14T21:01:19.679Z,4.40
2018-04-14T21:03:46.262Z,4.27
2018-04-14T21:06:12.836Z,4.10
2018-04-14T21:08:39.741Z,8.77
2018-04-14T21:11:06.308Z,3.87
2018-04-14T21:13:33.083Z,3.70
2018-04-14T21:15:59.647Z,4.70
2018-04-14T21:18:26.743Z,5.20
2018-04-14T21:20:53.343Z,13.67
2018-04-14T21:23:20.248Z,6.40
2018-04-14T21:25:46.809Z,12.00
2018-04-14T21:28:13.389Z,5.50
2018-04-14T21:30:47.265Z,9.43
2018-04-14T21:33:13.828Z,6.07
2018-04-14T21:35:40.357Z,5.77
2018-04-14T21:38:06.928Z,7.70
2018-04-14T21:40:33.497Z,6.73
2018-04-14T21:43:00.408Z,9.03
2018-04-14T21:45:27.004Z,6.87
2018-04-14T21:47:53.945Z,6.47
2018-04-14T21:50:20.497Z,6.00
2018-04-14T21:52:47.064Z,5.90
2018-04-14T21:55:14.009Z,6.37
2018-04-14T21:57:40.540Z,8.80
2018-04-14T22:00:07.576Z,7.50
2018-04-14T22:02:34.151Z,6.63
2018-04-14T22:05:00.692Z,4.23
2018-04-14T22:07:27.264Z,6.67
2018-04-14T22:09:54.244Z,6.70
2018-04-14T22:12:20.776Z,5.50
2018-04-14T22:14:47.768Z,8.47
2018-04-14T22:17:14.328Z,5.10
2018-04-14T22:19:40.864Z,6.03
2018-04-14T22:22:07.485Z,5.27
2018-04-14T22:24:34.064Z,9.20
2018-04-14T22:27:00.600Z,5.93
2018-04-14T22:29:27.175Z,5.37
2018-04-14T22:31:53.753Z,5.07
2018-04-14T22:34:20.665Z,6.03
2018-04-14T22:36:47.232Z,16.70
2018-04-14T22:39:13.799Z,5.47
2018-04-14T22:41:40.332Z,6.07
2018-04-14T22:44:06.933Z,5.63
2018-04-14T22:46:33.497Z,5.90
2018-04-14T22:49:00.025Z,6.13
2018-04-14T22:51:26.599Z,9.23
2018-04-14T22:53:53.161Z,4.80
2018-04-14T22:56:19.695Z,6.13
2018-04-14T22:58:46.283Z,9.57
2018-04-14T23:01:13.236Z,5.00
2018-04-14T23:03:39.768Z,6.20
2018-04-14T23:06:06.344Z,5.30
2018-04-14T23:08:33.355Z,17.60
2018-04-14T23:10:59.887Z,5.57
2018-04-14T23:13:26.457Z,6.27
2018-04-14T23:15:53.034Z,8.73
2018-04-14T23:18:19.936Z,6.80
2018-04-14T23:20:46.508Z,12.93
2018-04-14T23:23:13.108Z,5.73
2018-04-14T23:25:39.655Z,6.87
2018-04-14T23:28:06.232Z,5.80
2018-04-14T23:30:32.804Z,6.00
2018-04-14T23:32:59.331Z,7.60
2018-04-14T23:35:25.892Z,9.07
2018-04-14T23:37:52.457Z,5.30
2018-04-14T23:40:26.016Z,7.70
2018-04-14T23:42:52.580Z,6.43
2018-04-14T23:45:19.125Z,5.63
2018-04-14T23:47:45.688Z,5.63
2018-04-14T23:50:12.256Z,9.27
2018-04-14T23:52:38.802Z,8.00
2018-04-14T23:55:05.368Z,9.07
2018-04-14T23:57:32.317Z,5.10
2018-04-14T23:59:58.890Z,5.30
